• Join FlightAware (Why Join?)
  • Login
  • US Flag 
09:49AM EDT


 

Airport Tracker/Info


-or-


 

Live Flight TrackerFlight Track Log ✈ TAM3422 ✈ 16-Nov-2013 ✈ SBCF / CNF - SBPS

Flight Track Log - Related Links

Times and Time Zones

All times are in EST time to prevent confusion due to time zone crossing. See the TAM3422 flight status page for this flight to view local times or setup timezone preferences in your user account.

Time Position Orientation Groundspeed Altitude Reporting Facility
EST Latitude Longitude Course Direction KTS MPH feet Rate Location/Type
12:27PM -19.0960 -42.7450 68° East 429 494 27,300  Level FlightAware
12:28PM -19.0700 -42.6760 68° East 428 493 28,100 960 Climbing FlightAware
12:29PM -19.0320 -42.5770 68° East 442 509 28,700 540 Climbing FlightAware
12:29PM -19.0050 -42.5060 68° East 457 526 28,900 420 Climbing FlightAware
12:30PM -18.9790 -42.4380 68° East 466 536 29,200 660 Climbing FlightAware
12:31PM -18.9400 -42.3380 68° East 471 542 29,800 540 Climbing FlightAware
12:32PM -18.9090 -42.2600 67° East 473 544 30,000 660 Climbing FlightAware
12:32PM -18.8790 -42.1830 68° East 470 541 30,700 600 Climbing FlightAware
12:33PM -18.8550 -42.1220 67° East 470 541 30,700 1,500 Level FlightAware
12:33PM -18.8170 -42.0200 69° East 462 532 32,600 1,920 Climbing FlightAware
12:34PM -18.7900 -41.9510 68° East 464 534 33,100 960 Climbing FlightAware
12:35PM -18.7370 -41.8130 68° East 462 532 34,200 840 Climbing FlightAware
12:35PM -18.7170 -41.7620 68° East 463 533 34,400 600 Climbing FlightAware
12:36PM -18.6910 -41.6970 67° East 466 536 34,800 420 Climbing FlightAware
12:37PM -18.6500 -41.5920 68° East 468 539 35,000 60 Climbing FlightAware
12:38PM -18.6040 -41.4730 68° East 465 535 35,000  Level FlightAware
12:38PM -18.5780 -41.4060 68° East 464 534 35,000  Level FlightAware
12:39PM -18.5530 -41.3440 67° East 462 532 35,000  Level FlightAware
12:39PM -18.5320 -41.2900 68° East 460 529 35,000  Level FlightAware
12:40PM -18.4750 -41.1460 67° East 457 526 35,000  Level FlightAware
12:41PM -18.4240 -41.0170 67° East 456 525 35,000  Level FlightAware
12:42PM -18.4070 -40.9730 68° East 456 525 35,000  Level FlightAware
12:43PM -18.3550 -40.8440 67° East 456 525 35,000  Level FlightAware
12:44PM -18.3230 -40.7640 67° East 456 525 35,000  Level FlightAware
12:45PM -18.2880 -40.6790 67° East 456 525 35,000  Level FlightAware
12:45PM -18.2630 -40.6170 67° East 456 525 35,000  Level FlightAware
12:46PM -18.2380 -40.5540 67° East 456 525 35,000  Level FlightAware
12:46PM -18.2200 -40.5110 66° East 456 525 35,000  Level FlightAware
12:47PM -18.2030 -40.4670 68° East 456 525 35,000  Level FlightAware
12:48PM -18.1610 -40.3630 67° East 456 525 35,000  Level FlightAware
12:49PM -18.1190 -40.2590 67° East 456 525 35,000  Level FlightAware
12:50PM -18.0840 -40.1740 67° East 456 525 35,000  Level FlightAware
12:51PM -18.0420 -40.0700 67° East 456 525 35,000  Level FlightAware
12:51PM -18.0160 -40.0040 68° East 456 525 35,000  Level FlightAware
12:51PM -18.0070 -39.9830 66° East 456 525 35,000  Level FlightAware
12:55PM -17.7465 -39.8319 29° Northeast  Level Estimated
12:56PM -17.6642 -39.7843 29° Northeast  Level Estimated
12:57PM -17.5819 -39.7367 29° Northeast  Level Estimated
12:58PM -17.4995 -39.6892 29° Northeast  Level Estimated
12:59PM -17.4172 -39.6417 29° Northeast  Level Estimated
01:00PM -17.3349 -39.5942 29° Northeast  Level Estimated
01:01PM -17.2525 -39.5468 29° Northeast  Level Estimated
01:02PM -17.1701 -39.4995 29° Northeast  Level Estimated
01:03PM -17.0877 -39.4521 29° Northeast  Level Estimated
01:04PM -17.0054 -39.4049 29° Northeast  Level Estimated
01:05PM -16.9230 -39.3576 29° Northeast  Level Estimated
01:06PM -16.8405 -39.3104 29° Northeast  Level Estimated
01:07PM -16.7581 -39.2633 29° Northeast  Level Estimated
01:08PM -16.6757 -39.2161 29° Northeast  Level Estimated
01:09PM -16.5933 -39.1691 29° Northeast  Level Estimated
01:10PM -16.5108 -39.1221 29° Northeast  Level Estimated
01:11PM -16.4386 -39.0809 29° Northeast  Level Estimated
01:12PM -16.4386 -39.0809 71° East  Level Estimated
01:13PM -16.4386 -39.0809 71° East  Level Estimated
01:14PM -16.4386 -39.0809 71° East  Level Estimated
01:15PM -16.4386 -39.0809 71° East  Level Estimated
01:16PM -16.4386 -39.0809 71° East  Level Estimated
01:17PM -16.4386 -39.0809 71° East  Level Estimated
01:18PM -16.4386 -39.0809 71° East  Level Estimated
01:19PM -16.4386 -39.0809 71° East  Level Estimated
01:20PM -16.4386 -39.0809 71° East  Level Estimated
01:21PM -16.4386 -39.0809 71° East  Level Estimated
01:22PM -16.4386 -39.0809 71° East  Level Estimated
01:23PM -16.4386 -39.0809 71° East  Level Estimated
01:24PM -16.4386 -39.0809 71° East  Level Estimated
01:25PM -16.4386 -39.0809 71° East  Level Estimated
01:26PM -16.4386 -39.0809 71° East  Level Estimated
01:27PM -16.4386 -39.0809 71° East  Level Estimated
01:28PM -16.4386 -39.0809 71° East  Level Estimated
01:29PM -16.4386 -39.0809 71° East  Level Estimated